Time;durP1;ratioP1;P1;durP2;ratioP2;P2;SDS_P1;SDS_P2;PMS_P1;PMS_P2;Temp;Humidity;BMP_temperature;BMP_pressure;BME280_temperature;BME280_humidity;BME280_pressure;Samples;Min_cycle;Max_cycle;Signal;HPM_P1;HPM_P2
2022/12/11 00:02:01;;;;;;;35.55;14.65;;;;;;;-2.97;100.00;94622.38;5020908;28;20042;-74
2022/12/11 00:04:27;;;;;;;39.13;14.50;;;;;;;-2.94;100.00;94620.34;5020443;28;20096;-73
2022/12/11 00:06:53;;;;;;;37.80;13.95;;;;;;;-2.92;100.00;94623.53;5028957;28;20048;-73
2022/12/11 00:09:19;;;;;;;34.85;15.07;;;;;;;-2.94;100.00;94617.78;5019294;28;20562;-74
2022/12/11 00:11:46;;;;;;;32.40;12.60;;;;;;;-2.94;100.00;94615.22;5028993;28;20099;-74
2022/12/11 00:14:13;;;;;;;32.75;12.68;;;;;;;-3.03;100.00;94618.03;5022918;28;20045;-74
2022/12/11 00:16:39;;;;;;;32.65;13.25;;;;;;;-3.09;100.00;94616.28;5027163;28;20037;-74
2022/12/11 00:19:04;;;;;;;37.55;14.27;;;;;;;-3.00;100.00;94622.78;5023045;28;20045;-73
2022/12/11 00:21:30;;;;;;;34.92;13.93;;;;;;;-3.00;100.00;94617.63;5023759;28;20044;-74
2022/12/11 00:23:56;;;;;;;35.13;13.77;;;;;;;-2.96;100.00;94618.00;5025685;28;20033;-74
2022/12/11 00:26:21;;;;;;;36.35;13.48;;;;;;;-2.98;100.00;94615.63;5026180;28;20049;-74
2022/12/11 00:28:47;;;;;;;39.50;14.52;;;;;;;-3.08;100.00;94620.44;5015888;28;20576;-74
2022/12/11 00:31:17;;;;;;;32.80;13.38;;;;;;;-3.13;100.00;94622.84;5026262;28;20043;-74
2022/12/11 00:33:44;;;;;;;32.63;13.63;;;;;;;-3.03;100.00;94612.91;5018606;28;20073;-73
2022/12/11 00:36:12;;;;;;;37.25;13.65;;;;;;;-3.05;100.00;94614.88;5020986;28;20056;-74
2022/12/11 00:38:37;;;;;;;29.77;13.10;;;;;;;-3.01;100.00;94621.19;5021793;28;20159;-74
2022/12/11 00:41:03;;;;;;;25.27;11.25;;;;;;;-3.16;100.00;94618.09;5026738;28;20037;-74
2022/12/11 00:43:28;;;;;;;37.33;14.50;;;;;;;-3.12;100.00;94619.25;5026529;28;20689;-73
2022/12/11 00:45:54;;;;;;;33.17;13.70;;;;;;;-3.05;100.00;94620.03;5028109;28;20037;-74
2022/12/11 00:48:20;;;;;;;35.67;15.20;;;;;;;-3.17;100.00;94626.81;5022753;28;20113;-74
2022/12/11 00:50:45;;;;;;;33.30;13.45;;;;;;;-3.12;100.00;94619.25;5024489;28;20040;-74
2022/12/11 00:53:11;;;;;;;35.10;13.75;;;;;;;-3.18;100.00;94625.25;5023848;28;20045;-74
2022/12/11 00:55:38;;;;;;;29.80;13.65;;;;;;;-3.24;100.00;94613.19;5019220;28;20050;-74
2022/12/11 00:58:05;;;;;;;34.90;13.30;;;;;;;-3.22;100.00;94622.31;5018748;28;20046;-74
2022/12/11 01:00:31;;;;;;;32.60;12.63;;;;;;;-3.29;100.00;94623.31;5020680;28;20045;-74
2022/12/11 01:02:56;;;;;;;35.90;13.48;;;;;;;-3.36;100.00;94618.16;5022506;28;20734;-74
2022/12/11 01:05:22;;;;;;;37.30;13.68;;;;;;;-3.37;100.00;94627.69;5020586;28;20136;-74
2022/12/11 01:07:47;;;;;;;35.05;13.23;;;;;;;-3.25;100.00;94637.34;5018330;28;20037;-74
2022/12/11 01:10:23;;;;;;;28.80;12.15;;;;;;;-3.32;100.00;94635.59;5029066;28;20041;-76
2022/12/11 01:12:57;;;;;;;35.90;13.35;;;;;;;-3.37;100.00;94637.19;5024244;28;20041;-73
2022/12/11 01:15:27;;;;;;;31.75;12.57;;;;;;;-3.33;100.00;94639.16;5023395;28;20042;-73
2022/12/11 01:17:52;;;;;;;31.98;13.50;;;;;;;-3.43;100.00;94638.81;5021664;28;20435;-73
2022/12/11 01:20:20;;;;;;;31.63;12.65;;;;;;;-3.49;100.00;94639.63;5020201;28;20108;-73
2022/12/11 01:22:45;;;;;;;30.33;12.00;;;;;;;-3.51;100.00;94636.44;5024943;28;20114;-73
2022/12/11 01:25:11;;;;;;;31.33;11.93;;;;;;;-3.49;100.00;94639.63;5024270;28;20042;-73
2022/12/11 01:27:37;;;;;;;37.13;13.82;;;;;;;-3.40;100.00;94643.53;5023185;28;20041;-73
2022/12/11 01:30:06;;;;;;;31.42;12.95;;;;;;;-3.43;100.00;94651.66;5021855;28;20095;-73
2022/12/11 01:32:33;;;;;;;31.38;12.65;;;;;;;-3.42;100.00;94655.81;5025571;28;20041;-73
2022/12/11 01:34:58;;;;;;;32.83;12.32;;;;;;;-3.35;100.00;94659.16;5027747;28;20038;-73
2022/12/11 01:37:24;;;;;;;34.67;13.93;;;;;;;-3.38;100.00;94663.91;5020246;28;20041;-73
2022/12/11 01:39:49;;;;;;;33.70;12.52;;;;;;;-3.39;100.00;94665.69;5024381;28;20545;-72
2022/12/11 01:42:19;;;;;;;36.80;13.80;;;;;;;-3.44;100.00;94668.06;5026299;28;20141;-73
2022/12/11 01:44:44;;;;;;;33.13;12.63;;;;;;;-3.45;100.00;94666.50;5021097;28;20491;-73
2022/12/11 01:47:10;;;;;;;35.78;13.27;;;;;;;-3.44;100.00;94665.50;5021706;28;20045;-73
2022/12/11 01:49:39;;;;;;;31.25;12.60;;;;;;;-3.43;100.00;94658.56;5024228;28;20038;-73
2022/12/11 01:52:10;;;;;;;33.15;13.43;;;;;;;-3.37;100.00;94668.06;5021966;28;20103;-73
2022/12/11 01:54:36;;;;;;;28.92;12.70;;;;;;;-3.33;100.00;94669.25;5029120;28;20049;-72
2022/12/11 01:57:07;;;;;;;32.13;10.88;;;;;;;-3.20;100.00;94678.72;5018806;28;20571;-72
2022/12/11 01:59:36;;;;;;;37.47;12.52;;;;;;;-3.29;100.00;94669.63;5023354;28;20053;-72
2022/12/11 02:02:07;;;;;;;36.28;13.18;;;;;;;-3.30;100.00;94663.69;5020954;28;20034;-72
2022/12/11 02:04:35;;;;;;;25.88;10.07;;;;;;;-3.28;100.00;94661.69;5026384;28;20042;-72
2022/12/11 02:07:02;;;;;;;29.98;11.60;;;;;;;-3.35;100.00;94672.03;5018200;28;20048;-72
2022/12/11 02:09:31;;;;;;;31.42;12.30;;;;;;;-3.36;100.00;94662.72;5024077;28;20052;-72
2022/12/11 02:12:15;;;;;;;29.27;12.65;;;;;;;-3.35;100.00;94661.72;5024048;28;20042;-72
2022/12/11 02:14:51;;;;;;;30.48;11.63;;;;;;;-3.37;100.00;94655.97;5023677;28;20038;-72
2022/12/11 02:17:20;;;;;;;32.97;11.38;;;;;;;-3.38;100.00;94651.81;5018020;28;20053;-72
2022/12/11 02:20:00;;;;;;;28.00;11.27;;;;;;;-3.36;100.00;94655.00;5024337;28;20045;-72
2022/12/11 02:22:50;;;;;;;30.60;11.38;;;;;;;-3.33;100.00;94657.16;5022464;28;20132;-72
2022/12/11 02:25:34;;;;;;;28.40;11.63;;;;;;;-3.29;100.00;94643.88;5023727;28;20041;-74
2022/12/11 02:28:22;;;;;;;26.15;10.77;;;;;;;-3.24;100.00;94651.78;5019649;28;20041;-72
2022/12/11 02:30:54;;;;;;;32.58;11.82;;;;;;;-3.29;100.00;94649.03;5024347;28;20048;-71
2022/12/11 02:33:31;;;;;;;30.08;11.75;;;;;;;-3.35;100.00;94646.28;5018174;28;20061;-72
2022/12/11 02:35:59;;;;;;;29.75;11.38;;;;;;;-3.39;100.00;94650.25;5015673;28;20038;-72
2022/12/11 02:38:32;;;;;;;29.85;12.27;;;;;;;-3.33;100.00;94648.66;5023048;28;20050;-73
2022/12/11 02:40:59;;;;;;;32.00;12.00;;;;;;;-3.20;100.00;94652.97;5023031;28;20557;-73
2022/12/11 02:43:27;;;;;;;27.83;11.38;;;;;;;-3.28;100.00;94641.09;5024732;28;20033;-74
2022/12/11 02:45:53;;;;;;;32.55;11.85;;;;;;;-3.34;100.00;94647.84;5024787;28;20375;-72
2022/12/11 02:48:21;;;;;;;36.00;12.65;;;;;;;-3.33;100.00;94644.28;5017761;28;20084;-72
2022/12/11 02:50:51;;;;;;;28.80;11.68;;;;;;;-3.39;100.00;94645.13;5021406;28;20045;-73
2022/12/11 02:53:21;;;;;;;31.63;11.85;;;;;;;-3.27;100.00;94647.84;5020657;28;20053;-73
2022/12/11 02:55:53;;;;;;;31.70;12.35;;;;;;;-3.33;100.00;94654.59;5031271;28;20048;-72
2022/12/11 02:58:23;;;;;;;33.25;11.45;;;;;;;-3.31;100.00;94650.03;5017711;28;20042;-73
2022/12/11 03:00:49;;;;;;;34.65;12.30;;;;;;;-3.29;100.00;94654.19;5023925;28;20037;-72
2022/12/11 03:03:15;;;;;;;33.50;12.18;;;;;;;-3.34;100.00;94653.00;5029186;28;20077;-72
2022/12/11 03:05:41;;;;;;;28.00;11.50;;;;;;;-3.34;100.00;94653.00;5024547;28;20046;-72
2022/12/11 03:08:06;;;;;;;29.48;11.48;;;;;;;-3.33;100.00;94654.59;5025212;28;20065;-72
2022/12/11 03:10:32;;;;;;;33.05;12.20;;;;;;;-3.35;100.00;94656.59;5020808;28;20117;-72
2022/12/11 03:12:59;;;;;;;30.48;11.93;;;;;;;-3.39;100.00;94660.56;5028437;28;20483;-72
2022/12/11 03:15:37;;;;;;;26.98;10.90;;;;;;;-3.43;100.00;94659.38;5026054;28;20041;-71
2022/12/11 03:18:17;;;;;;;32.35;11.30;;;;;;;-3.42;100.00;94660.97;5020235;28;20047;-72
2022/12/11 03:20:51;;;;;;;27.40;10.68;;;;;;;-3.40;100.00;94664.13;5025991;28;20041;-71
2022/12/11 03:23:29;;;;;;;30.27;11.15;;;;;;;-3.40;100.00;94664.13;5024440;28;20446;-71
2022/12/11 03:26:04;;;;;;;30.33;11.35;;;;;;;-3.45;100.00;94661.34;5026671;28;20554;-71
2022/12/11 03:28:48;;;;;;;29.02;11.98;;;;;;;-3.44;100.00;94662.94;5021418;28;20100;-71
2022/12/11 03:31:25;;;;;;;28.52;11.80;;;;;;;-3.51;100.00;94667.31;5022882;28;20570;-66
2022/12/11 03:33:55;;;;;;;32.40;12.48;;;;;;;-3.41;100.00;94662.53;5021638;28;20578;-71
2022/12/11 03:36:25;;;;;;;32.42;12.30;;;;;;;-3.29;100.00;94667.81;5028087;28;20057;-71
2022/12/11 03:39:01;;;;;;;31.40;12.35;;;;;;;-3.34;100.00;94668.44;5020840;28;20042;-72
2022/12/11 03:41:29;;;;;;;27.80;11.38;;;;;;;-3.38;100.00;94672.41;5029174;28;20503;-73
2022/12/11 03:43:57;;;;;;;34.60;12.13;;;;;;;-3.41;100.00;94672.03;5026834;28;20067;-70
2022/12/11 03:46:29;;;;;;;30.90;12.10;;;;;;;-3.39;100.00;94678.56;5027901;28;20038;-70
2022/12/11 03:49:00;;;;;;;30.85;11.70;;;;;;;-3.39;100.00;94670.84;5022009;28;20112;-69
2022/12/11 03:51:27;;;;;;;35.15;12.45;;;;;;;-3.44;100.00;94675.78;5026409;28;20038;-70
2022/12/11 03:53:54;;;;;;;33.17;11.57;;;;;;;-3.37;100.00;94674.00;5026126;28;20041;-70
2022/12/11 03:56:21;;;;;;;35.70;11.63;;;;;;;-3.33;100.00;94680.31;5025989;28;20068;-70
2022/12/11 03:58:46;;;;;;;32.60;10.73;;;;;;;-3.34;100.00;94683.88;5024795;28;20523;-70
2022/12/11 04:01:12;;;;;;;31.90;10.80;;;;;;;-3.44;100.00;94678.38;5025216;28;20041;-70
2022/12/11 04:03:38;;;;;;;36.88;13.18;;;;;;;-3.52;100.00;94676.81;5020465;28;20038;-70
2022/12/11 04:06:03;;;;;;;31.98;10.32;;;;;;;-3.35;100.00;94672.03;5023135;28;20080;-70
2022/12/11 04:08:29;;;;;;;32.83;11.25;;;;;;;-3.46;100.00;94672.66;5023433;28;20046;-70
2022/12/11 04:11:41;;;;;;;39.40;13.63;;;;;;;-3.54;100.00;94678.00;5027616;28;20052;-70
2022/12/11 04:13:40;;;;;;;36.85;11.98;;;;;;;-3.53;100.00;94669.31;5018670;28;20076;-70
2022/12/11 04:16:07;;;;;;;37.22;11.75;;;;;;;-3.47;100.00;94667.72;5028793;28;20041;-70
2022/12/11 04:24:15;;;;;;;39.50;11.55;;;;;;;-3.68;100.00;94670.31;5018064;28;20717;-69
2022/12/11 04:26:43;;;;;;;41.28;13.43;;;;;;;-3.63;100.00;94679.19;5021448;28;20041;-69
2022/12/11 04:29:08;;;;;;;41.60;13.43;;;;;;;-3.74;100.00;94676.25;5027165;28;20045;-70
2022/12/11 04:31:34;;;;;;;43.00;13.77;;;;;;;-3.78;100.00;94677.63;5021502;28;20686;-70
2022/12/11 04:33:59;;;;;;;48.13;14.60;;;;;;;-3.83;100.00;94670.53;5022840;28;20042;-69
2022/12/11 04:36:25;;;;;;;41.78;12.88;;;;;;;-3.83;100.00;94672.31;5024195;28;20454;-68
2022/12/11 04:38:50;;;;;;;50.22;15.02;;;;;;;-3.86;100.00;94678.66;5027002;28;20037;-69
2022/12/11 04:41:16;;;;;;;46.00;15.70;;;;;;;-3.93;100.00;94682.22;5026624;28;20045;-70
2022/12/11 04:43:45;;;;;;;41.67;13.48;;;;;;;-4.03;100.00;94680.81;5020892;28;20042;-70
2022/12/11 04:46:15;;;;;;;47.00;15.32;;;;;;;-3.91;100.00;94678.44;5021953;28;20049;-70
2022/12/11 04:48:41;;;;;;;51.88;15.10;;;;;;;-3.98;100.00;94674.31;5017494;28;20057;-70
2022/12/11 04:51:07;;;;;;;52.05;15.85;;;;;;;-4.04;100.00;94678.44;5022519;28;20516;-70
2022/12/11 04:53:34;;;;;;;51.97;15.70;;;;;;;-3.96;100.00;94675.69;5025700;28;20044;-70
2022/12/11 04:55:59;;;;;;;37.78;11.75;;;;;;;-3.95;100.00;94671.31;5021396;28;20065;-70
2022/12/11 04:58:26;;;;;;;51.13;15.57;;;;;;;-3.92;100.00;94660.66;5013794;28;20038;-71
2022/12/11 05:00:52;;;;;;;58.60;17.70;;;;;;;-3.98;100.00;94666.59;5022650;28;20178;-70
2022/12/11 05:03:18;;;;;;;64.10;17.25;;;;;;;-3.98;100.00;94666.59;5019980;28;20042;-70
2022/12/11 05:05:49;;;;;;;50.58;16.10;;;;;;;-4.07;100.00;94664.22;5020780;28;20091;-70
2022/12/11 05:08:16;;;;;;;51.50;15.32;;;;;;;-4.06;100.00;94670.94;5025512;28;20041;-71
2022/12/11 05:10:42;;;;;;;44.47;15.15;;;;;;;-4.02;100.00;94666.22;5023130;28;20041;-70
2022/12/11 05:13:07;;;;;;;49.42;16.02;;;;;;;-4.13;100.00;94661.66;5017109;28;20038;-71
2022/12/11 05:15:33;;;;;;;41.83;13.35;;;;;;;-4.03;100.00;94660.25;5026510;28;20037;-70
2022/12/11 05:17:58;;;;;;;56.00;16.05;;;;;;;-4.12;100.00;94661.47;5023791;28;20100;-70
2022/12/11 05:20:24;;;;;;;47.20;14.25;;;;;;;-4.09;100.00;94658.50;5020797;28;20042;-71
2022/12/11 05:22:49;;;;;;;47.05;15.65;;;;;;;-4.13;100.00;94665.00;5024997;28;20046;-70
2022/12/11 05:25:15;;;;;;;42.47;13.88;;;;;;;-4.13;100.00;94662.44;5020163;28;20558;-70
2022/12/11 05:27:40;;;;;;;45.25;14.48;;;;;;;-4.14;100.00;94663.44;5022591;28;20041;-70
2022/12/11 05:30:07;;;;;;;43.92;15.30;;;;;;;-4.11;100.00;94657.88;5026892;28;20065;-70
2022/12/11 05:32:32;;;;;;;37.28;13.55;;;;;;;-4.08;100.00;94660.09;5023988;28;20049;-71
2022/12/11 05:34:58;;;;;;;38.58;13.93;;;;;;;-3.96;100.00;94664.63;5022992;28;20392;-71
2022/12/11 05:37:23;;;;;;;38.92;12.70;;;;;;;-3.95;100.00;94661.84;5023627;28;20054;-71
2022/12/11 05:39:49;;;;;;;39.15;12.98;;;;;;;-3.95;100.00;94663.63;5019881;28;20041;-70
2022/12/11 05:42:14;;;;;;;42.30;13.93;;;;;;;-4.01;100.00;94663.44;5026692;28;20041;-70
2022/12/11 05:44:40;;;;;;;31.58;11.23;;;;;;;-3.94;100.00;94662.63;5016390;28;20049;-70
2022/12/11 05:47:05;;;;;;;32.00;11.48;;;;;;;-3.85;100.00;94661.44;5025469;28;20064;-70
2022/12/11 05:49:31;;;;;;;29.05;11.27;;;;;;;-3.88;100.00;94661.84;5019131;28;20041;-70
2022/12/11 05:51:56;;;;;;;33.33;11.05;;;;;;;-3.93;100.00;94669.38;5013672;28;20045;-70
2022/12/11 05:54:22;;;;;;;29.40;10.75;;;;;;;-3.91;100.00;94662.22;5018364;28;20385;-71
2022/12/11 05:56:49;;;;;;;29.55;12.20;;;;;;;-3.96;100.00;94664.63;5023089;28;20534;-70
2022/12/11 05:59:15;;;;;;;36.13;11.55;;;;;;;-3.96;100.00;94659.50;5023213;28;20415;-70
2022/12/11 06:01:41;;;;;;;28.27;10.95;;;;;;;-3.94;100.00;94662.63;5024861;28;20046;-71
2022/12/11 06:04:10;;;;;;;30.15;10.65;;;;;;;-3.97;100.00;94658.69;5014614;28;20480;-70
2022/12/11 06:06:35;;;;;;;29.92;11.18;;;;;;;-3.98;100.00;94656.31;5023481;28;20045;-71
2022/12/11 06:09:02;;;;;;;22.70;9.73;;;;;;;-4.05;100.00;94657.13;5024968;28;20048;-70
2022/12/11 06:11:30;;;;;;;25.30;9.45;;;;;;;-4.04;100.00;94645.84;5019549;28;20048;-70
2022/12/11 06:13:56;;;;;;;26.73;10.52;;;;;;;-4.08;100.00;94649.81;5024924;28;20503;-68
2022/12/11 06:16:22;;;;;;;28.23;10.40;;;;;;;-4.11;100.00;94646.84;5020856;28;20049;-70
2022/12/11 06:18:48;;;;;;;25.58;10.02;;;;;;;-4.12;100.00;94646.03;5015017;28;20048;-70
2022/12/11 06:21:16;;;;;;;27.48;10.65;;;;;;;-4.09;100.00;94645.66;5027948;28;20049;-70
2022/12/11 06:23:42;;;;;;;29.25;10.02;;;;;;;-4.09;100.00;94650.78;5019849;28;20034;-70
2022/12/11 06:26:08;;;;;;;26.52;9.98;;;;;;;-4.19;100.00;94651.19;5022595;28;20057;-70
2022/12/11 06:28:34;;;;;;;30.02;11.57;;;;;;;-4.25;100.00;94643.47;5024753;28;20048;-70
2022/12/11 06:31:00;;;;;;;30.25;11.35;;;;;;;-4.21;100.00;94647.22;5028076;28;20419;-70
2022/12/11 06:33:27;;;;;;;26.08;9.80;;;;;;;-4.13;100.00;94652.16;5029600;28;20503;-70
2022/12/11 06:35:52;;;;;;;28.75;11.90;;;;;;;-4.20;100.00;94659.09;5022602;28;20121;-70
2022/12/11 06:38:18;;;;;;;25.77;9.48;;;;;;;-4.16;100.00;94660.28;5020630;28;20048;-70
2022/12/11 06:40:44;;;;;;;28.45;10.93;;;;;;;-4.19;100.00;94655.53;5026761;28;20046;-70
2022/12/11 06:43:09;;;;;;;25.67;10.75;;;;;;;-4.24;100.00;94652.75;5026396;28;20042;-70
2022/12/11 06:45:38;;;;;;;26.05;11.30;;;;;;;-4.19;100.00;94650.41;5022063;28;20060;-70
2022/12/11 06:48:03;;;;;;;30.70;10.55;;;;;;;-4.20;100.00;94653.94;5024439;28;20061;-70
2022/12/11 06:50:29;;;;;;;31.92;11.77;;;;;;;-4.19;100.00;94647.84;5018259;28;20038;-71
2022/12/11 06:52:55;;;;;;;26.60;10.15;;;;;;;-4.24;100.00;94642.47;5028180;28;20087;-70
2022/12/11 06:55:21;;;;;;;31.10;11.57;;;;;;;-4.25;100.00;94641.72;5027873;28;20077;-70
2022/12/11 06:57:47;;;;;;;31.27;12.25;;;;;;;-4.15;100.00;94651.59;5022990;28;20034;-69
2022/12/11 07:00:13;;;;;;;25.98;11.10;;;;;;;-4.19;100.00;94651.19;5023512;28;20088;-70
2022/12/11 07:02:39;;;;;;;29.33;11.82;;;;;;;-4.20;100.00;94646.25;5028565;28;20505;-69
2022/12/11 07:05:04;;;;;;;26.73;10.75;;;;;;;-4.12;100.00;94651.19;5025027;28;20230;-70
2022/12/11 07:07:30;;;;;;;29.75;11.88;;;;;;;-4.19;100.00;94648.63;5023022;28;20042;-70
2022/12/11 07:09:55;;;;;;;27.80;12.05;;;;;;;-4.12;100.00;94653.75;5016001;28;20033;-70
2022/12/11 07:12:21;;;;;;;24.77;10.98;;;;;;;-4.12;100.00;94660.66;5028320;28;20521;-70
2022/12/11 07:14:46;;;;;;;30.05;13.10;;;;;;;-4.11;100.00;94657.09;5018515;28;20037;-69
2022/12/11 07:17:12;;;;;;;28.15;11.38;;;;;;;-3.96;100.00;94664.63;5028986;28;20076;-70
2022/12/11 07:19:38;;;;;;;26.48;11.90;;;;;;;-4.00;100.00;94665.00;5030065;28;20041;-70
2022/12/11 07:22:03;;;;;;;29.35;12.35;;;;;;;-4.01;100.00;94660.06;5024343;28;20038;-70
2022/12/11 07:24:29;;;;;;;32.53;14.43;;;;;;;-4.04;100.00;94663.84;5018532;28;20046;-71
2022/12/11 07:26:54;;;;;;;32.50;12.73;;;;;;;-4.03;100.00;94670.53;5026929;28;20064;-71
2022/12/11 07:29:20;;;;;;;28.13;12.02;;;;;;;-3.97;100.00;94668.19;5029653;28;20049;-70
2022/12/11 07:31:45;;;;;;;33.25;12.18;;;;;;;-4.01;100.00;94673.72;5025537;28;20038;-70
2022/12/11 07:34:12;;;;;;;28.42;11.75;;;;;;;-4.01;100.00;94678.88;5021959;28;20569;-70
2022/12/11 07:36:38;;;;;;;33.88;13.23;;;;;;;-3.97;100.00;94675.88;5022279;28;20042;-71
2022/12/11 07:39:04;;;;;;;29.80;12.18;;;;;;;-3.97;100.00;94673.31;5026135;28;20510;-70
2022/12/11 07:41:30;;;;;;;29.77;12.93;;;;;;;-3.96;100.00;94680.06;5019767;28;20046;-70
2022/12/11 07:43:58;;;;;;;33.70;12.20;;;;;;;-3.89;100.00;94676.47;5026453;28;20042;-70
2022/12/11 07:46:26;;;;;;;29.17;11.85;;;;;;;-3.84;100.00;94678.44;5023667;28;20046;-71
2022/12/11 07:48:52;;;;;;;35.58;14.38;;;;;;;-3.85;100.00;94669.13;5025916;28;20442;-70
2022/12/11 07:51:26;;;;;;;34.22;12.40;;;;;;;-3.82;100.00;94671.34;5027962;28;20537;-71
2022/12/11 07:53:54;;;;;;;34.83;13.13;;;;;;;-3.82;100.00;94676.47;5018995;28;20068;-70
2022/12/11 07:56:20;;;;;;;28.73;12.20;;;;;;;-3.78;100.00;94675.06;5024071;28;20049;-69
2022/12/11 07:58:46;;;;;;;28.52;13.20;;;;;;;-3.85;100.00;94677.66;5023076;28;20037;-69
2022/12/11 08:01:24;;;;;;;26.70;10.90;;;;;;;-3.76;100.00;94678.25;5024223;28;21510;-69
2022/12/11 08:03:50;;;;;;;26.73;10.82;;;;;;;-3.84;100.00;94673.28;5022935;28;20068;-70
2022/12/11 08:06:17;;;;;;;32.28;12.27;;;;;;;-3.75;100.00;94682.41;5029487;28;20049;-69
2022/12/11 08:08:43;;;;;;;28.85;12.35;;;;;;;-3.85;100.00;94676.84;5013503;28;20073;-71
2022/12/11 08:11:11;;;;;;;31.88;12.95;;;;;;;-3.87;100.00;94689.13;5020237;28;20045;-70
2022/12/11 08:13:38;;;;;;;29.85;11.10;;;;;;;-3.87;100.00;94684.00;5040488;28;20077;-69
2022/12/11 08:16:06;;;;;;;30.05;11.73;;;;;;;-3.80;100.00;94684.78;5049278;28;20060;-69
2022/12/11 08:18:33;;;;;;;33.42;12.65;;;;;;;-3.67;100.00;94683.97;5045222;28;20065;-68
2022/12/11 08:20:58;;;;;;;29.95;12.25;;;;;;;-3.77;100.00;94684.38;5030906;28;20043;-67
2022/12/11 08:23:24;;;;;;;28.17;11.73;;;;;;;-3.71;100.00;94680.97;5040759;28;20132;-68
2022/12/11 08:25:49;;;;;;;23.38;9.80;;;;;;;-3.75;100.00;94677.25;5035511;28;20018;-69
2022/12/11 08:28:15;;;;;;;28.00;11.18;;;;;;;-3.67;100.00;94679.59;5038675;28;20045;-68
2022/12/11 08:30:40;;;;;;;50.85;19.20;;;;;;;-3.68;100.00;94678.03;5040317;28;20282;-68
2022/12/11 08:33:06;;;;;;;105.07;29.48;;;;;;;-3.65;100.00;94676.81;5035017;28;20656;-69
2022/12/11 08:35:32;;;;;;;60.13;19.40;;;;;;;-3.67;100.00;94679.59;5016821;28;20133;-68
2022/12/11 08:37:57;;;;;;;30.33;12.00;;;;;;;-3.72;100.00;94682.00;5019246;28;20506;-67
2022/12/11 08:40:23;;;;;;;31.08;12.65;;;;;;;-3.66;100.00;94686.31;5025677;28;20041;-67
2022/12/11 08:42:48;;;;;;;28.27;12.23;;;;;;;-3.63;100.00;94689.47;5023984;28;20064;-69
2022/12/11 08:45:14;;;;;;;25.35;10.80;;;;;;;-3.63;100.00;94689.47;5015305;28;20619;-67
2022/12/11 08:47:40;;;;;;;26.48;11.05;;;;;;;-3.60;100.00;94692.47;5028176;28;20114;-68
2022/12/11 08:50:06;;;;;;;26.73;10.68;;;;;;;-3.56;100.00;94701.34;5019100;28;20037;-68
2022/12/11 08:52:34;;;;;;;34.45;12.50;;;;;;;-3.38;100.00;94690.41;5026836;28;20048;-67
2022/12/11 08:55:00;;;;;;;28.00;11.13;;;;;;;-3.30;100.00;94689.44;5027882;28;20491;-68
2022/12/11 08:57:27;;;;;;;27.85;9.98;;;;;;;-3.29;100.00;94690.97;5017390;28;20049;-68
2022/12/11 08:59:53;;;;;;;31.10;10.93;;;;;;;-3.13;100.00;94694.91;5026329;28;20041;-69
2022/12/11 09:02:18;;;;;;;24.02;9.77;;;;;;;-3.18;100.00;94692.16;5026027;28;20070;-69
2022/12/11 09:04:44;;;;;;;27.17;10.68;;;;;;;-3.19;100.00;94690.56;5027100;28;20045;-68
2022/12/11 09:07:09;;;;;;;22.60;10.32;;;;;;;-3.24;100.00;94692.97;5026006;28;20037;-69
2022/12/11 09:09:35;;;;;;;25.92;10.48;;;;;;;-3.23;100.00;94694.53;5023582;28;20423;-69
2022/12/11 09:12:00;;;;;;;21.17;8.95;;;;;;;-3.29;100.00;94695.34;5025152;28;20527;-70
2022/12/11 09:14:26;;;;;;;26.77;10.23;;;;;;;-3.24;100.00;94692.97;5020924;28;20424;-70
2022/12/11 09:16:52;;;;;;;25.70;10.15;;;;;;;-3.15;100.00;94691.75;5020218;28;20041;-72
2022/12/11 09:19:18;;;;;;;25.88;10.23;;;;;;;-3.11;100.00;94698.06;5014954;28;20053;-66
2022/12/11 09:21:44;;;;;;;34.88;11.32;;;;;;;-2.96;100.00;94690.06;5023211;28;20041;-67
2022/12/11 09:24:11;;;;;;;26.08;11.07;;;;;;;-3.04;100.00;94688.53;5014820;28;20042;-67
2022/12/11 09:26:37;;;;;;;26.08;9.93;;;;;;;-3.07;100.00;94683.78;5026308;28;20037;-67
2022/12/11 09:29:04;;;;;;;22.95;9.52;;;;;;;-2.98;100.00;94687.72;5022905;28;20049;-67
2022/12/11 09:31:32;;;;;;;23.23;9.38;;;;;;;-3.09;100.00;94690.13;5027568;28;20037;-67
2022/12/11 09:34:01;;;;;;;19.42;8.35;;;;;;;-2.98;100.00;94686.94;5023642;28;20037;-69
2022/12/11 09:36:27;;;;;;;22.45;9.40;;;;;;;-2.97;100.00;94689.28;5020857;28;20099;-65
2022/12/11 09:38:53;;;;;;;18.58;8.60;;;;;;;-3.20;100.00;94678.72;5020651;28;20042;-67
2022/12/11 09:41:28;;;;;;;19.50;8.85;;;;;;;-3.05;100.00;94686.94;5021454;28;20565;-66
2022/12/11 09:44:17;;;;;;;20.88;8.85;;;;;;;-3.14;100.00;94683.03;5022545;28;20049;-68
2022/12/11 09:46:42;;;;;;;21.83;9.50;;;;;;;-3.14;100.00;94677.88;5005983;28;20650;-68
2022/12/11 09:49:39;;;;;;;20.98;9.52;;;;;;;-2.94;100.00;94679.56;5023581;28;20041;-68
2022/12/11 09:52:16;;;;;;;19.20;8.13;;;;;;;-2.78;100.00;94682.47;5007971;28;20056;-67
2022/12/11 09:54:49;;;;;;;17.33;8.40;;;;;;;-2.74;100.00;94667.41;5020516;28;20458;-68
2022/12/11 09:57:45;;;;;;;19.90;8.30;;;;;;;-2.70;100.00;94673.72;5022846;28;20037;-67
2022/12/11 10:00:17;;;;;;;25.75;10.23;;;;;;;-2.88;100.00;94671.03;5017408;28;20813;-68
2022/12/11 10:03:16;;;;;;;17.77;8.10;;;;;;;-2.93;100.00;94668.28;5023331;28;20083;-69
2022/12/11 10:06:01;;;;;;;16.50;6.82;;;;;;;-3.05;100.00;94671.50;5028134;28;20045;-68
2022/12/11 10:08:49;;;;;;;18.80;7.93;;;;;;;-3.03;100.00;94669.53;5024653;28;20045;-67
2022/12/11 10:11:23;;;;;;;18.50;7.93;;;;;;;-3.10;100.00;94663.63;5018547;28;20050;-66
2022/12/11 10:14:00;;;;;;;21.70;8.43;;;;;;;-2.84;100.00;94656.78;5019049;28;20057;-67
2022/12/11 10:16:43;;;;;;;20.85;7.80;;;;;;;-3.00;100.00;94658.81;5009793;28;20045;-67
2022/12/11 10:19:17;;;;;;;16.27;6.88;;;;;;;-2.93;100.00;94658.00;5025008;28;20053;-68
2022/12/11 10:21:43;;;;;;;;;;;;;;;-2.71;100.00;94651.53;5012064;28;20503;-68
2022/12/11 10:24:18;;;;;;;16.77;7.28;;;;;;;-2.80;100.00;94647.63;5017171;28;19987;-67
2022/12/11 10:26:45;;;;;;;18.33;8.00;;;;;;;-2.92;100.00;94638.97;5010700;28;20069;-67
2022/12/11 10:29:14;;;;;;;21.65;8.30;;;;;;;-2.89;100.00;94648.88;5014399;28;20046;-67
2022/12/11 10:31:50;;;;;;;18.02;7.78;;;;;;;-2.96;100.00;94639.41;5009948;28;20046;-67
2022/12/11 10:34:35;;;;;;;16.58;7.35;;;;;;;-2.85;100.00;94644.88;5025436;28;20054;-69
2022/12/11 10:37:01;;;;;;;16.60;7.45;;;;;;;-3.02;100.00;94647.91;5016020;28;20528;-67
2022/12/11 10:39:27;;;;;;;18.13;7.70;;;;;;;-2.97;100.00;94637.81;5018512;28;20067;-67
2022/12/11 10:41:54;;;;;;;18.00;8.35;;;;;;;-2.86;100.00;94638.16;5027981;28;20450;-68
2022/12/11 10:44:23;;;;;;;19.00;8.35;;;;;;;-2.61;100.00;94636.41;5019969;28;20673;-68
2022/12/11 10:47:09;;;;;;;19.30;7.70;;;;;;;-2.65;100.00;94630.09;5011406;28;20578;-67
2022/12/11 10:49:37;;;;;;;17.17;7.80;;;;;;;-2.61;100.00;94631.25;5023874;28;20112;-68
2022/12/11 10:52:19;;;;;;;20.42;8.23;;;;;;;-2.68;100.00;94630.50;5019235;28;20535;-68
2022/12/11 10:54:52;;;;;;;17.00;6.78;;;;;;;-2.87;100.00;94634.00;5020972;28;20144;-68
2022/12/11 10:57:27;;;;;;;16.30;7.63;;;;;;;-2.84;100.00;94626.66;5024882;28;20038;-68
2022/12/11 10:59:54;;;;;;;17.45;8.15;;;;;;;-2.89;100.00;94617.97;5017565;28;20065;-68
2022/12/11 11:02:30;;;;;;;21.33;7.57;;;;;;;-2.83;100.00;94614.56;5025144;28;20095;-68
2022/12/11 11:04:57;;;;;;;15.70;7.57;;;;;;;-2.78;100.00;94614.72;5023880;28;20033;-67
2022/12/11 11:07:25;;;;;;;18.42;7.95;;;;;;;-2.85;100.00;94613.97;5010446;28;20538;-68
2022/12/11 11:10:14;;;;;;;17.85;7.63;;;;;;;-2.64;100.00;94615.44;5020211;28;20060;-68
2022/12/11 11:12:45;;;;;;;14.02;5.70;;;;;;;-2.72;100.00;94611.31;5014827;28;20044;-68
2022/12/11 11:15:14;;;;;;;16.05;6.55;;;;;;;-2.84;100.00;94600.13;5027378;28;20114;-67
2022/12/11 11:17:49;;;;;;;19.95;8.70;;;;;;;-2.79;100.00;94597.69;5024141;28;20041;-68
2022/12/11 11:20:18;;;;;;;14.18;6.45;;;;;;;-3.14;100.00;94595.53;5024235;28;20049;-68
2022/12/11 11:22:50;;;;;;;15.45;6.90;;;;;;;-2.84;100.00;94589.81;5029746;28;20503;-67
2022/12/11 11:25:19;;;;;;;15.93;7.15;;;;;;;-3.01;100.00;94594.66;5025265;28;20037;-67